sensor_id;sensor_type;location;lat;lon;timestamp;pressure;altitude;pressure_sealevel;temperature;humidity
15529;BME280;7866;52.280;9.500;2023-05-08T00:01:14;101063.66;;;9.32;82.07
15529;BME280;7866;52.280;9.500;2023-05-08T00:06:16;101067.19;;;9.23;82.63
15529;BME280;7866;52.280;9.500;2023-05-08T00:11:19;101069.31;;;9.09;82.99
15529;BME280;7866;52.280;9.500;2023-05-08T00:16:21;101068.63;;;9.07;83.20
15529;BME280;7866;52.280;9.500;2023-05-08T00:21:23;101062.28;;;9.08;83.45
15529;BME280;7866;52.280;9.500;2023-05-08T00:26:26;101068.31;;;9.01;83.14
15529;BME280;7866;52.280;9.500;2023-05-08T00:31:28;101067.06;;;8.95;83.05
15529;BME280;7866;52.280;9.500;2023-05-08T00:36:29;101067.22;;;8.94;83.30
15529;BME280;7866;52.280;9.500;2023-05-08T00:41:50;101068.19;;;8.93;83.55
15529;BME280;7866;52.280;9.500;2023-05-08T00:46:52;101068.06;;;8.94;83.63
15529;BME280;7866;52.280;9.500;2023-05-08T00:51:54;101064.94;;;8.89;83.16
15529;BME280;7866;52.280;9.500;2023-05-08T00:56:59;101063.84;;;8.82;83.30
15529;BME280;7866;52.280;9.500;2023-05-08T01:02:01;101057.94;;;8.78;83.92
15529;BME280;7866;52.280;9.500;2023-05-08T01:07:02;101059.06;;;8.76;83.62
15529;BME280;7866;52.280;9.500;2023-05-08T01:12:12;101052.31;;;8.72;83.17
15529;BME280;7866;52.280;9.500;2023-05-08T01:17:22;101042.31;;;8.64;83.37
15529;BME280;7866;52.280;9.500;2023-05-08T01:22:44;101047.25;;;8.69;83.61
15529;BME280;7866;52.280;9.500;2023-05-08T01:28:07;101049.06;;;8.58;83.47
15529;BME280;7866;52.280;9.500;2023-05-08T01:33:19;101047.81;;;8.62;83.77
15529;BME280;7866;52.280;9.500;2023-05-08T01:38:30;101048.22;;;8.58;83.57
15529;BME280;7866;52.280;9.500;2023-05-08T01:43:38;101043.84;;;8.47;84.10
15529;BME280;7866;52.280;9.500;2023-05-08T01:48:48;101053.13;;;8.43;84.32
15529;BME280;7866;52.280;9.500;2023-05-08T01:53:53;101067.72;;;8.39;84.32
15529;BME280;7866;52.280;9.500;2023-05-08T01:58:57;101052.13;;;8.44;84.23
15529;BME280;7866;52.280;9.500;2023-05-08T02:04:02;101051.09;;;8.35;84.48
15529;BME280;7866;52.280;9.500;2023-05-08T02:09:07;101051.81;;;8.37;84.21
15529;BME280;7866;52.280;9.500;2023-05-08T02:14:11;101052.50;;;8.30;84.37
15529;BME280;7866;52.280;9.500;2023-05-08T02:19:15;101051.94;;;8.26;84.25
15529;BME280;7866;52.280;9.500;2023-05-08T02:24:19;101041.47;;;8.13;84.34
15529;BME280;7866;52.280;9.500;2023-05-08T02:29:22;101049.22;;;8.17;84.92
15529;BME280;7866;52.280;9.500;2023-05-08T02:34:26;101045.84;;;8.14;85.13
15529;BME280;7866;52.280;9.500;2023-05-08T02:39:30;101046.81;;;8.13;84.86
15529;BME280;7866;52.280;9.500;2023-05-08T02:44:34;101046.81;;;8.13;84.98
15529;BME280;7866;52.280;9.500;2023-05-08T02:49:42;101040.94;;;8.10;84.66
15529;BME280;7866;52.280;9.500;2023-05-08T02:54:52;101037.69;;;8.06;84.73
15529;BME280;7866;52.280;9.500;2023-05-08T02:59:59;101038.06;;;8.02;85.01
15529;BME280;7866;52.280;9.500;2023-05-08T03:05:07;101034.56;;;8.01;84.70
15529;BME280;7866;52.280;9.500;2023-05-08T03:10:14;101026.56;;;8.01;84.65
15529;BME280;7866;52.280;9.500;2023-05-08T03:15:24;101028.81;;;7.96;84.70
15529;BME280;7866;52.280;9.500;2023-05-08T03:20:32;101030.47;;;7.97;85.01
15529;BME280;7866;52.280;9.500;2023-05-08T03:25:36;101034.44;;;8.03;84.75
15529;BME280;7866;52.280;9.500;2023-05-08T03:30:40;101033.88;;;7.99;84.63
15529;BME280;7866;52.280;9.500;2023-05-08T03:35:44;101025.72;;;7.91;84.62
15529;BME280;7866;52.280;9.500;2023-05-08T03:40:46;101022.63;;;7.96;84.41
15529;BME280;7866;52.280;9.500;2023-05-08T03:45:49;101022.31;;;7.89;84.96
15529;BME280;7866;52.280;9.500;2023-05-08T03:50:53;101027.28;;;8.03;84.93
15529;BME280;7866;52.280;9.500;2023-05-08T03:55:55;101023.06;;;8.01;84.80
15529;BME280;7866;52.280;9.500;2023-05-08T04:01:02;101016.47;;;8.05;84.63
15529;BME280;7866;52.280;9.500;2023-05-08T04:06:11;101017.38;;;8.25;84.34
15529;BME280;7866;52.280;9.500;2023-05-08T04:11:21;101022.47;;;8.37;84.12
15529;BME280;7866;52.280;9.500;2023-05-08T04:16:26;101018.16;;;8.46;83.70
15529;BME280;7866;52.280;9.500;2023-05-08T04:21:33;101030.81;;;8.63;83.41
15529;BME280;7866;52.280;9.500;2023-05-08T04:26:36;101033.88;;;8.69;83.02
15529;BME280;7866;52.280;9.500;2023-05-08T04:31:39;101036.56;;;8.78;82.32
15529;BME280;7866;52.280;9.500;2023-05-08T04:36:42;101035.16;;;8.84;82.55
15529;BME280;7866;52.280;9.500;2023-05-08T04:41:43;101039.34;;;9.16;81.68
15529;BME280;7866;52.280;9.500;2023-05-08T04:46:47;101038.19;;;9.84;81.25
15529;BME280;7866;52.280;9.500;2023-05-08T04:51:50;101039.94;;;10.31;77.80
15529;BME280;7866;52.280;9.500;2023-05-08T04:56:52;101027.84;;;9.99;77.89
15529;BME280;7866;52.280;9.500;2023-05-08T05:01:54;101033.75;;;10.30;77.84
15529;BME280;7866;52.280;9.500;2023-05-08T05:06:57;101040.38;;;10.54;77.04
15529;BME280;7866;52.280;9.500;2023-05-08T05:11:58;101046.72;;;10.71;75.23
15529;BME280;7866;52.280;9.500;2023-05-08T05:17:00;101029.97;;;10.69;75.54
15529;BME280;7866;52.280;9.500;2023-05-08T05:22:03;101027.72;;;11.00;74.63
15529;BME280;7866;52.280;9.500;2023-05-08T05:27:05;101030.34;;;11.09;74.61
15529;BME280;7866;52.280;9.500;2023-05-08T05:32:07;101044.78;;;11.17;74.78
15529;BME280;7866;52.280;9.500;2023-05-08T05:37:12;101048.03;;;10.84;74.44
15529;BME280;7866;52.280;9.500;2023-05-08T05:42:13;101049.63;;;11.13;75.63
15529;BME280;7866;52.280;9.500;2023-05-08T05:47:15;101051.81;;;12.22;72.42
15529;BME280;7866;52.280;9.500;2023-05-08T05:52:18;101062.63;;;11.52;72.80
15529;BME280;7866;52.280;9.500;2023-05-08T05:57:20;101062.50;;;12.14;72.46
15529;BME280;7866;52.280;9.500;2023-05-08T06:02:21;101074.06;;;12.06;71.55
15529;BME280;7866;52.280;9.500;2023-05-08T06:07:24;101074.91;;;12.06;72.24
15529;BME280;7866;52.280;9.500;2023-05-08T06:12:26;101074.34;;;12.37;71.27
15529;BME280;7866;52.280;9.500;2023-05-08T06:17:28;101069.59;;;13.06;69.80
15529;BME280;7866;52.280;9.500;2023-05-08T06:22:31;101071.31;;;13.40;68.38
15529;BME280;7866;52.280;9.500;2023-05-08T06:27:33;101088.03;;;12.76;69.88
15529;BME280;7866;52.280;9.500;2023-05-08T06:32:34;101078.97;;;12.69;71.35
15529;BME280;7866;52.280;9.500;2023-05-08T06:37:37;101072.13;;;13.07;70.87
15529;BME280;7866;52.280;9.500;2023-05-08T06:42:39;101073.63;;;12.94;69.90
15529;BME280;7866;52.280;9.500;2023-05-08T06:47:41;101079.66;;;12.88;70.58
15529;BME280;7866;52.280;9.500;2023-05-08T06:52:44;101080.94;;;12.59;71.36
15529;BME280;7866;52.280;9.500;2023-05-08T06:57:45;101088.09;;;12.34;72.26
15529;BME280;7866;52.280;9.500;2023-05-08T07:02:47;101073.13;;;12.90;70.72
15529;BME280;7866;52.280;9.500;2023-05-08T07:07:50;101069.94;;;13.03;70.31
15529;BME280;7866;52.280;9.500;2023-05-08T07:12:53;101063.25;;;13.23;69.08
15529;BME280;7866;52.280;9.500;2023-05-08T07:17:54;101061.06;;;13.35;69.16
15529;BME280;7866;52.280;9.500;2023-05-08T07:22:57;101069.94;;;13.03;69.93
15529;BME280;7866;52.280;9.500;2023-05-08T07:27:59;101071.50;;;13.30;69.18
15529;BME280;7866;52.280;9.500;2023-05-08T07:33:01;101068.94;;;13.61;68.58
15529;BME280;7866;52.280;9.500;2023-05-08T07:38:04;101071.38;;;13.87;67.16
15529;BME280;7866;52.280;9.500;2023-05-08T07:43:06;101076.28;;;13.84;67.53
15529;BME280;7866;52.280;9.500;2023-05-08T07:48:08;101078.84;;;13.69;68.64
15529;BME280;7866;52.280;9.500;2023-05-08T07:53:11;101078.09;;;13.91;67.61
15529;BME280;7866;52.280;9.500;2023-05-08T07:58:12;101091.91;;;14.36;66.63
15529;BME280;7866;52.280;9.500;2023-05-08T08:03:14;101085.13;;;14.09;67.31
15529;BME280;7866;52.280;9.500;2023-05-08T08:08:17;101085.16;;;13.92;68.17
15529;BME280;7866;52.280;9.500;2023-05-08T08:13:19;101075.81;;;14.59;66.86
15529;BME280;7866;52.280;9.500;2023-05-08T08:18:21;101085.69;;;14.35;66.53
15529;BME280;7866;52.280;9.500;2023-05-08T08:23:24;101077.94;;;14.40;67.00
15529;BME280;7866;52.280;9.500;2023-05-08T08:28:26;101072.63;;;14.86;66.11
15529;BME280;7866;52.280;9.500;2023-05-08T08:33:28;101074.66;;;15.07;64.38
15529;BME280;7866;52.280;9.500;2023-05-08T08:38:31;101065.94;;;14.43;65.57
15529;BME280;7866;52.280;9.500;2023-05-08T08:43:33;101066.59;;;14.76;66.34
15529;BME280;7866;52.280;9.500;2023-05-08T08:48:36;101066.34;;;14.94;64.93
15529;BME280;7866;52.280;9.500;2023-05-08T08:53:43;101062.72;;;14.78;65.52
15529;BME280;7866;52.280;9.500;2023-05-08T08:58:50;101062.25;;;14.98;65.03
15529;BME280;7866;52.280;9.500;2023-05-08T09:03:56;101056.41;;;15.32;64.66
15529;BME280;7866;52.280;9.500;2023-05-08T09:09:00;101060.56;;;15.58;63.75
15529;BME280;7866;52.280;9.500;2023-05-08T09:14:02;101043.56;;;15.34;64.59
15529;BME280;7866;52.280;9.500;2023-05-08T09:19:03;101047.84;;;15.43;64.59
15529;BME280;7866;52.280;9.500;2023-05-08T09:24:06;101041.53;;;15.36;64.88
15529;BME280;7866;52.280;9.500;2023-05-08T09:29:09;101055.00;;;15.74;64.30
15529;BME280;7866;52.280;9.500;2023-05-08T09:34:22;101057.09;;;16.38;62.71
15529;BME280;7866;52.280;9.500;2023-05-08T09:39:27;101049.88;;;16.96;61.84
15529;BME280;7866;52.280;9.500;2023-05-08T09:44:42;101044.78;;;16.86;60.25
15529;BME280;7866;52.280;9.500;2023-05-08T09:49:57;101053.13;;;16.55;61.90
15529;BME280;7866;52.280;9.500;2023-05-08T09:55:02;101039.88;;;16.75;62.56
15529;BME280;7866;52.280;9.500;2023-05-08T10:00:05;101041.97;;;17.51;60.55
15529;BME280;7866;52.280;9.500;2023-05-08T10:05:22;101039.31;;;17.01;61.08
15529;BME280;7866;52.280;9.500;2023-05-08T10:10:27;101040.16;;;17.30;61.62
15529;BME280;7866;52.280;9.500;2023-05-08T10:15:29;101034.44;;;17.74;60.40
15529;BME280;7866;52.280;9.500;2023-05-08T10:20:33;101030.75;;;17.54;59.71
15529;BME280;7866;52.280;9.500;2023-05-08T10:25:41;101031.00;;;18.28;58.35
15529;BME280;7866;52.280;9.500;2023-05-08T10:30:47;101025.31;;;18.16;58.52
15529;BME280;7866;52.280;9.500;2023-05-08T10:35:49;101021.16;;;18.27;58.73
15529;BME280;7866;52.280;9.500;2023-05-08T10:40:52;101017.25;;;18.43;57.33
15529;BME280;7866;52.280;9.500;2023-05-08T10:45:57;101016.34;;;18.90;57.44
15529;BME280;7866;52.280;9.500;2023-05-08T10:51:08;101018.94;;;18.44;56.38
15529;BME280;7866;52.280;9.500;2023-05-08T10:56:13;101008.50;;;18.41;58.51
15529;BME280;7866;52.280;9.500;2023-05-08T11:01:15;101006.75;;;19.28;56.76
15529;BME280;7866;52.280;9.500;2023-05-08T11:06:40;101008.63;;;19.01;56.45
15529;BME280;7866;52.280;9.500;2023-05-08T11:11:53;101009.25;;;19.36;54.80
15529;BME280;7866;52.280;9.500;2023-05-08T11:17:07;100996.28;;;19.44;54.61
15529;BME280;7866;52.280;9.500;2023-05-08T11:22:29;101000.88;;;19.31;56.83
15529;BME280;7866;52.280;9.500;2023-05-08T11:33:28;100992.97;;;19.16;54.81
15529;BME280;7866;52.280;9.500;2023-05-08T11:38:31;100996.28;;;19.44;55.99
15529;BME280;7866;52.280;9.500;2023-05-08T11:49:26;101004.81;;;19.55;53.88
15529;BME280;7866;52.280;9.500;2023-05-08T11:54:29;100998.41;;;18.96;56.29
15529;BME280;7866;52.280;9.500;2023-05-08T11:59:34;101005.69;;;19.49;55.23
15529;BME280;7866;52.280;9.500;2023-05-08T12:04:44;101004.22;;;19.46;55.26
15529;BME280;7866;52.280;9.500;2023-05-08T12:09:47;101004.22;;;19.46;54.61
15529;BME280;7866;52.280;9.500;2023-05-08T12:14:48;101006.31;;;19.37;55.05
15529;BME280;7866;52.280;9.500;2023-05-08T12:19:54;101003.97;;;19.81;54.85
15529;BME280;7866;52.280;9.500;2023-05-08T12:25:03;101000.88;;;19.44;54.72
15529;BME280;7866;52.280;9.500;2023-05-08T12:30:06;100998.53;;;19.61;53.18
15529;BME280;7866;52.280;9.500;2023-05-08T12:35:11;101011.06;;;20.33;53.88
15529;BME280;7866;52.280;9.500;2023-05-08T12:40:24;101001.91;;;19.69;53.57
15529;BME280;7866;52.280;9.500;2023-05-08T12:45:27;101013.88;;;20.13;53.93
15529;BME280;7866;52.280;9.500;2023-05-08T12:50:33;101006.88;;;19.86;52.90
15529;BME280;7866;52.280;9.500;2023-05-08T12:55:37;101002.31;;;20.31;53.01
15529;BME280;7866;52.280;9.500;2023-05-08T13:00:40;101000.06;;;20.60;52.81
15529;BME280;7866;52.280;9.500;2023-05-08T13:05:44;100997.91;;;20.30;53.25
15529;BME280;7866;52.280;9.500;2023-05-08T13:10:47;100995.59;;;19.82;53.71
15529;BME280;7866;52.280;9.500;2023-05-08T13:15:49;100979.78;;;20.56;52.20
15529;BME280;7866;52.280;9.500;2023-05-08T13:20:53;100994.19;;;20.18;52.69
15529;BME280;7866;52.280;9.500;2023-05-08T13:25:55;100970.00;;;20.80;51.04
15529;BME280;7866;52.280;9.500;2023-05-08T13:30:57;100966.69;;;21.03;51.22
15529;BME280;7866;52.280;9.500;2023-05-08T13:35:59;100959.38;;;20.33;51.76
15529;BME280;7866;52.280;9.500;2023-05-08T13:41:01;100954.50;;;20.80;51.89
15529;BME280;7866;52.280;9.500;2023-05-08T13:46:03;100950.97;;;20.73;51.24
15529;BME280;7866;52.280;9.500;2023-05-08T13:51:06;100952.69;;;21.17;50.72
15529;BME280;7866;52.280;9.500;2023-05-08T13:56:08;100949.22;;;21.35;50.18
15529;BME280;7866;52.280;9.500;2023-05-08T14:01:09;100940.81;;;21.30;50.32
15529;BME280;7866;52.280;9.500;2023-05-08T14:06:12;100932.59;;;21.19;50.79
15529;BME280;7866;52.280;9.500;2023-05-08T14:11:14;100931.03;;;21.48;50.80
15529;BME280;7866;52.280;9.500;2023-05-08T14:16:16;100931.09;;;20.98;51.25
15529;BME280;7866;52.280;9.500;2023-05-08T14:21:19;100934.25;;;21.20;50.85
15529;BME280;7866;52.280;9.500;2023-05-08T14:26:21;100923.72;;;21.23;50.86
15529;BME280;7866;52.280;9.500;2023-05-08T14:31:22;100919.59;;;21.57;49.96
15529;BME280;7866;52.280;9.500;2023-05-08T14:36:25;100914.31;;;21.01;51.90
15529;BME280;7866;52.280;9.500;2023-05-08T14:41:27;100916.59;;;21.22;49.98
15529;BME280;7866;52.280;9.500;2023-05-08T14:46:29;100910.22;;;21.10;51.31
15529;BME280;7866;52.280;9.500;2023-05-08T14:51:32;100908.38;;;21.29;51.12
15529;BME280;7866;52.280;9.500;2023-05-08T14:56:33;100903.84;;;21.41;50.56
15529;BME280;7866;52.280;9.500;2023-05-08T15:01:35;100888.63;;;21.33;49.35
15529;BME280;7866;52.280;9.500;2023-05-08T15:06:42;100894.94;;;21.09;50.78
15529;BME280;7866;52.280;9.500;2023-05-08T15:11:43;100886.81;;;21.27;50.57
15529;BME280;7866;52.280;9.500;2023-05-08T15:16:45;100892.94;;;21.78;49.75
15529;BME280;7866;52.280;9.500;2023-05-08T15:21:48;100889.06;;;21.12;51.11
15529;BME280;7866;52.280;9.500;2023-05-08T15:26:49;100879.13;;;21.17;50.21
15529;BME280;7866;52.280;9.500;2023-05-08T15:31:51;100881.19;;;21.22;50.88
15529;BME280;7866;52.280;9.500;2023-05-08T15:36:54;100872.47;;;21.38;49.49
15529;BME280;7866;52.280;9.500;2023-05-08T15:41:55;100879.91;;;21.80;49.57
15529;BME280;7866;52.280;9.500;2023-05-08T15:46:57;100869.06;;;21.43;50.54
15529;BME280;7866;52.280;9.500;2023-05-08T15:52:00;100871.34;;;21.21;50.52
15529;BME280;7866;52.280;9.500;2023-05-08T15:57:02;100872.09;;;21.35;51.00
15529;BME280;7866;52.280;9.500;2023-05-08T16:02:03;100879.84;;;21.31;50.71
15529;BME280;7866;52.280;9.500;2023-05-08T16:07:06;100867.94;;;20.64;51.86
15529;BME280;7866;52.280;9.500;2023-05-08T16:12:08;100874.72;;;20.80;51.05
15529;BME280;7866;52.280;9.500;2023-05-08T16:17:10;100869.00;;;20.63;51.76
15529;BME280;7866;52.280;9.500;2023-05-08T16:22:13;100879.03;;;20.62;50.90
15529;BME280;7866;52.280;9.500;2023-05-08T16:27:14;100867.69;;;20.65;50.97
15529;BME280;7866;52.280;9.500;2023-05-08T16:32:16;100875.19;;;20.70;51.49
15529;BME280;7866;52.280;9.500;2023-05-08T16:37:19;100881.66;;;20.44;51.86
15529;BME280;7866;52.280;9.500;2023-05-08T16:42:21;100870.97;;;20.49;51.83
15529;BME280;7866;52.280;9.500;2023-05-08T16:47:22;100874.19;;;20.39;51.27
15529;BME280;7866;52.280;9.500;2023-05-08T16:52:25;100868.06;;;20.19;51.48
15529;BME280;7866;52.280;9.500;2023-05-08T16:57:27;100864.66;;;20.24;51.11
15529;BME280;7866;52.280;9.500;2023-05-08T17:02:29;100862.34;;;20.27;51.35
15529;BME280;7866;52.280;9.500;2023-05-08T17:07:32;100873.50;;;20.19;51.71
15529;BME280;7866;52.280;9.500;2023-05-08T17:12:34;100863.09;;;20.03;51.53
15529;BME280;7866;52.280;9.500;2023-05-08T17:17:36;100865.22;;;20.01;51.69
15529;BME280;7866;52.280;9.500;2023-05-08T17:22:39;100859.50;;;19.77;51.93
15529;BME280;7866;52.280;9.500;2023-05-08T17:27:40;100859.97;;;19.67;52.33
15529;BME280;7866;52.280;9.500;2023-05-08T17:32:42;100863.09;;;19.58;52.40
15529;BME280;7866;52.280;9.500;2023-05-08T17:37:46;100866.88;;;19.57;52.45
15529;BME280;7866;52.280;9.500;2023-05-08T17:42:48;100861.69;;;19.42;52.77
15529;BME280;7866;52.280;9.500;2023-05-08T17:47:49;100861.28;;;19.38;52.89
15529;BME280;7866;52.280;9.500;2023-05-08T17:52:52;100865.13;;;19.24;53.33
15529;BME280;7866;52.280;9.500;2023-05-08T17:57:54;100870.56;;;19.17;53.09
15529;BME280;7866;52.280;9.500;2023-05-08T18:02:57;100860.56;;;19.05;53.54
15529;BME280;7866;52.280;9.500;2023-05-08T18:08:00;100863.91;;;18.87;53.60
15529;BME280;7866;52.280;9.500;2023-05-08T18:13:02;100867.06;;;18.70;53.98
15529;BME280;7866;52.280;9.500;2023-05-08T18:18:03;100859.13;;;18.56;54.61
15529;BME280;7866;52.280;9.500;2023-05-08T18:23:06;100859.97;;;18.36;55.04
15529;BME280;7866;52.280;9.500;2023-05-08T18:28:08;100870.16;;;18.21;55.23
15529;BME280;7866;52.280;9.500;2023-05-08T18:33:10;100874.72;;;18.01;56.69
15529;BME280;7866;52.280;9.500;2023-05-08T18:38:13;100875.59;;;17.60;59.13
15529;BME280;7866;52.280;9.500;2023-05-08T18:43:16;100873.53;;;17.27;60.56
15529;BME280;7866;52.280;9.500;2023-05-08T18:48:18;100877.94;;;17.28;60.69
15529;BME280;7866;52.280;9.500;2023-05-08T18:53:21;100880.88;;;16.98;61.31
15529;BME280;7866;52.280;9.500;2023-05-08T18:58:23;100888.13;;;16.70;62.63
15529;BME280;7866;52.280;9.500;2023-05-08T19:03:24;100884.28;;;16.58;63.26
15529;BME280;7866;52.280;9.500;2023-05-08T19:08:28;100883.19;;;16.31;64.41
15529;BME280;7866;52.280;9.500;2023-05-08T19:13:29;100885.84;;;16.24;64.38
15529;BME280;7866;52.280;9.500;2023-05-08T19:18:31;100890.09;;;16.12;64.68
15529;BME280;7866;52.280;9.500;2023-05-08T19:23:34;100884.38;;;15.85;65.55
15529;BME280;7866;52.280;9.500;2023-05-08T19:28:36;100887.56;;;15.74;65.91
15529;BME280;7866;52.280;9.500;2023-05-08T19:33:37;100896.06;;;15.56;66.25
15529;BME280;7866;52.280;9.500;2023-05-08T19:38:40;100890.19;;;15.38;66.77
15529;BME280;7866;52.280;9.500;2023-05-08T19:43:42;100887.22;;;15.33;66.76
15529;BME280;7866;52.280;9.500;2023-05-08T19:48:44;100884.44;;;15.26;66.39
15529;BME280;7866;52.280;9.500;2023-05-08T19:53:47;100880.53;;;15.14;66.62
15529;BME280;7866;52.280;9.500;2023-05-08T19:58:48;100883.84;;;15.16;66.54
15529;BME280;7866;52.280;9.500;2023-05-08T20:03:50;100867.97;;;15.06;66.88
15529;BME280;7866;52.280;9.500;2023-05-08T20:08:53;100872.88;;;15.02;66.83
15529;BME280;7866;52.280;9.500;2023-05-08T20:13:55;100868.41;;;14.95;67.18
15529;BME280;7866;52.280;9.500;2023-05-08T20:18:56;100859.22;;;14.89;66.81
15529;BME280;7866;52.280;9.500;2023-05-08T20:24:00;100853.03;;;14.66;67.20
15529;BME280;7866;52.280;9.500;2023-05-08T20:29:01;100860.78;;;14.69;67.33
15529;BME280;7866;52.280;9.500;2023-05-08T20:34:03;100857.00;;;14.55;67.48
15529;BME280;7866;52.280;9.500;2023-05-08T20:39:06;100855.88;;;14.49;67.57
15529;BME280;7866;52.280;9.500;2023-05-08T20:44:08;100855.72;;;14.43;67.53
15529;BME280;7866;52.280;9.500;2023-05-08T20:49:11;100853.84;;;14.28;67.97
15529;BME280;7866;52.280;9.500;2023-05-08T20:54:14;100852.22;;;14.19;68.32
15529;BME280;7866;52.280;9.500;2023-05-08T20:59:16;100861.56;;;14.09;68.58
15529;BME280;7866;52.280;9.500;2023-05-08T21:04:18;100862.28;;;14.02;69.18
15529;BME280;7866;52.280;9.500;2023-05-08T21:09:21;100861.84;;;13.91;69.14
15529;BME280;7866;52.280;9.500;2023-05-08T21:14:22;100855.34;;;13.85;69.25
15529;BME280;7866;52.280;9.500;2023-05-08T21:19:24;100850.06;;;13.92;68.65
15529;BME280;7866;52.280;9.500;2023-05-08T21:24:27;100844.19;;;13.88;68.75
15529;BME280;7866;52.280;9.500;2023-05-08T21:29:29;100835.91;;;13.67;69.40
15529;BME280;7866;52.280;9.500;2023-05-08T21:34:30;100830.09;;;13.55;69.35
15529;BME280;7866;52.280;9.500;2023-05-08T21:39:33;100824.94;;;13.45;70.01
15529;BME280;7866;52.280;9.500;2023-05-08T21:44:35;100827.94;;;13.50;69.91
15529;BME280;7866;52.280;9.500;2023-05-08T21:49:37;100819.91;;;13.42;70.17
15529;BME280;7866;52.280;9.500;2023-05-08T21:54:40;100816.38;;;13.42;69.99
15529;BME280;7866;52.280;9.500;2023-05-08T21:59:41;100813.88;;;13.32;70.07
15529;BME280;7866;52.280;9.500;2023-05-08T22:05:02;100811.38;;;13.22;70.35
15529;BME280;7866;52.280;9.500;2023-05-08T22:10:06;100800.97;;;13.19;70.17
15529;BME280;7866;52.280;9.500;2023-05-08T22:15:09;100802.69;;;13.12;70.30
15529;BME280;7866;52.280;9.500;2023-05-08T22:20:12;100798.53;;;13.01;70.92
15529;BME280;7866;52.280;9.500;2023-05-08T22:25:15;100799.69;;;13.07;70.62
15529;BME280;7866;52.280;9.500;2023-05-08T22:30:17;100792.81;;;12.96;70.67
15529;BME280;7866;52.280;9.500;2023-05-08T22:35:19;100785.66;;;12.89;71.03
15529;BME280;7866;52.280;9.500;2023-05-08T22:40:23;100779.66;;;12.70;71.38
15529;BME280;7866;52.280;9.500;2023-05-08T22:45:25;100774.63;;;12.59;72.37
15529;BME280;7866;52.280;9.500;2023-05-08T22:50:27;100773.13;;;12.56;72.16
15529;BME280;7866;52.280;9.500;2023-05-08T22:55:30;100768.13;;;12.45;72.64
15529;BME280;7866;52.280;9.500;2023-05-08T23:00:31;100776.00;;;12.47;72.59
15529;BME280;7866;52.280;9.500;2023-05-08T23:05:33;100759.72;;;12.40;72.49
15529;BME280;7866;52.280;9.500;2023-05-08T23:10:36;100748.47;;;12.37;72.64
15529;BME280;7866;52.280;9.500;2023-05-08T23:15:38;100744.81;;;12.38;72.59
15529;BME280;7866;52.280;9.500;2023-05-08T23:20:39;100740.59;;;12.35;72.37
15529;BME280;7866;52.280;9.500;2023-05-08T23:25:43;100738.09;;;12.33;72.60
15529;BME280;7866;52.280;9.500;2023-05-08T23:30:44;100740.59;;;12.35;72.33
15529;BME280;7866;52.280;9.500;2023-05-08T23:35:46;100739.09;;;12.32;72.08
15529;BME280;7866;52.280;9.500;2023-05-08T23:40:49;100731.91;;;12.17;72.45
15529;BME280;7866;52.280;9.500;2023-05-08T23:45:50;100727.72;;;12.22;72.62
15529;BME280;7866;52.280;9.500;2023-05-08T23:50:52;100722.19;;;12.07;72.53
15529;BME280;7866;52.280;9.500;2023-05-08T23:55:55;100723.72;;;12.02;72.83
